Search for airport 
image banner adimage banner adimage banner ad
image banner ad

KEDU - University

Located in Davis, United States

ICAO - EDU, IATA -

Data provided by Airmate  

General information

Coordinates: N38°31'53" W121°47'11"
Elevation is 68 feet MSL.
Magnetic variation is 14° East
View others Airports in California

Operational data

Special qualification required
Current time UTC:
Current local time:
Weather
METAR: KEDU 211055Z AUTO 20006KT 10SM CLR 17/09 A2979 RMK AO1
View NOTAMs / SUP AIP / TFR affecting this airport [VIEW]
Communications frequencies: [VIEW]

Runways:

RWY identifierQFULength (ft)Width (ft)SurfaceLDA (ft)
17181°317650ASPH
35317650ASPH

Airport contact information

Address: Davis United States

Other aviation service providers

Flight schools

Cal Aggie Flying Farmers, Inc.

Cal Aggie Flying Farmers, Inc.

Satellite view of KEDU